createdAt,value
2023-04-01T00:01:20.461Z,99174.41
2023-04-01T00:03:49.282Z,99181.81
2023-04-01T00:06:20.581Z,99186.38
2023-04-01T00:08:49.327Z,99187.59
2023-04-01T00:11:18.164Z,99189.34
2023-04-01T00:13:49.993Z,99185.50
2023-04-01T00:16:22.391Z,99198.50
2023-04-01T00:18:52.538Z,99200.47
2023-04-01T00:21:22.518Z,99198.63
2023-04-01T00:23:52.698Z,99201.94
2023-04-01T00:26:23.273Z,99204.44
2023-04-01T00:28:52.684Z,99204.13
2023-04-01T00:31:22.431Z,99208.16
2023-04-01T00:33:50.845Z,99211.97
2023-04-01T00:36:22.208Z,99212.41
2023-04-01T00:38:51.472Z,99226.41
2023-04-01T00:41:21.532Z,99231.00
2023-04-01T00:43:52.749Z,99225.28
2023-04-01T00:46:21.852Z,99234.94
2023-04-01T00:48:54.359Z,99237.13
2023-04-01T00:51:32.726Z,99242.19
2023-04-01T00:54:06.033Z,99245.69
2023-04-01T00:56:42.290Z,99237.16
2023-04-01T00:59:15.687Z,99241.63
2023-04-01T01:01:44.517Z,99250.25
2023-04-01T01:04:24.631Z,99250.16
2023-04-01T01:07:20.318Z,99253.84
2023-04-01T01:09:51.512Z,99248.13
2023-04-01T01:12:26.146Z,99253.88
2023-04-01T01:15:01.564Z,99250.47
2023-04-01T01:17:51.469Z,99245.50
2023-04-01T01:20:54.241Z,99251.25
2023-04-01T01:23:50.011Z,99257.25
2023-04-01T01:26:48.643Z,99265.81
2023-04-01T01:29:23.001Z,99267.25
2023-04-01T01:32:03.133Z,99267.88
2023-04-01T01:34:45.469Z,99265.00
2023-04-01T01:37:21.613Z,99262.81
2023-04-01T01:40:00.535Z,99265.00
2023-04-01T01:42:33.508Z,99271.28
2023-04-01T01:45:04.639Z,99268.91
2023-04-01T01:47:35.824Z,99272.41
2023-04-01T01:50:06.827Z,99280.75
2023-04-01T01:52:35.273Z,99278.03
2023-04-01T01:55:03.791Z,99283.56
2023-04-01T01:57:36.741Z,99288.56
2023-04-01T02:00:15.508Z,99283.56
2023-04-01T02:02:47.943Z,99286.28
2023-04-01T02:05:24.421Z,99285.59
2023-04-01T02:08:02.678Z,99280.59
2023-04-01T02:10:36.325Z,99284.06
2023-04-01T02:13:13.190Z,99288.28
2023-04-01T02:15:47.920Z,99289.69
2023-04-01T02:18:18.036Z,99286.94
2023-04-01T02:20:47.677Z,99288.34
2023-04-01T02:23:16.959Z,99293.84
2023-04-01T02:25:47.082Z,99287.53
2023-04-01T02:28:19.175Z,99289.47
2023-04-01T02:30:49.120Z,99281.09
2023-04-01T02:33:19.088Z,99284.53
2023-04-01T02:35:47.783Z,99278.75
2023-04-01T02:38:17.732Z,99278.59
2023-04-01T02:40:52.582Z,99280.75
2023-04-01T02:43:21.808Z,99287.78
2023-04-01T02:45:50.171Z,99286.31
2023-04-01T02:48:18.653Z,99291.84
2023-04-01T02:50:47.198Z,99290.38
2023-04-01T02:53:15.661Z,99294.59
2023-04-01T02:55:44.257Z,99291.81
2023-04-01T02:58:12.887Z,99293.19
2023-04-01T03:00:41.313Z,99286.06
2023-04-01T03:03:10.604Z,99288.97
2023-04-01T03:05:39.188Z,99285.41
2023-04-01T03:08:08.371Z,99283.94
2023-04-01T03:10:37.008Z,99283.47
2023-04-01T03:13:05.777Z,99274.81
2023-04-01T03:15:34.399Z,99272.00
2023-04-01T03:18:03.131Z,99267.69
2023-04-01T03:20:31.614Z,99264.91
2023-04-01T03:23:00.666Z,99263.41
2023-04-01T03:25:30.848Z,99264.53
2023-04-01T03:28:01.489Z,99260.78
2023-04-01T03:30:31.913Z,99256.47
2023-04-01T03:33:02.585Z,99250.84
2023-04-01T03:35:31.323Z,99252.19
2023-04-01T03:38:00.012Z,99247.09
2023-04-01T03:40:28.586Z,99247.09
2023-04-01T03:42:58.063Z,99233.50
2023-04-01T03:45:26.923Z,99239.94
2023-04-01T03:47:56.163Z,99237.09
2023-04-01T03:50:24.679Z,99231.47
2023-04-01T03:52:53.134Z,99227.13
2023-04-01T03:55:22.268Z,99224.84
2023-04-01T03:57:50.702Z,99228.41
2023-04-01T04:00:19.353Z,99218.94
2023-04-01T04:02:47.970Z,99220.28
2023-04-01T04:05:16.679Z,99208.72
2023-04-01T04:07:45.092Z,99207.00
2023-04-01T04:10:13.637Z,99195.09
2023-04-01T04:12:42.528Z,99197.75
2023-04-01T04:15:11.980Z,99195.28
2023-04-01T04:17:40.782Z,99189.41
2023-04-01T04:20:10.568Z,99184.69
2023-04-01T04:22:39.152Z,99177.50
2023-04-01T04:25:08.530Z,99172.94
2023-04-01T04:27:37.378Z,99168.19
2023-04-01T04:30:07.942Z,99163.78
2023-04-01T04:32:36.783Z,99157.16
2023-04-01T04:35:05.751Z,99151.44
2023-04-01T04:37:34.245Z,99152.56
2023-04-01T04:40:02.721Z,99151.03
2023-04-01T04:42:31.206Z,99134.69
2023-04-01T04:44:59.675Z,99127.66
2023-04-01T04:47:28.064Z,99130.25
2023-04-01T04:49:56.498Z,99120.00
2023-04-01T04:52:24.874Z,99116.91
2023-04-01T04:54:53.227Z,99113.28
2023-04-01T04:57:21.887Z,99106.78
2023-04-01T04:59:50.352Z,99102.19
2023-04-01T05:02:18.854Z,99090.44
2023-04-01T05:04:47.306Z,99088.69
2023-04-01T05:07:15.693Z,99083.72
2023-04-01T05:09:44.153Z,99084.38
2023-04-01T05:12:14.875Z,99079.97
2023-04-01T05:14:43.272Z,99074.75
2023-04-01T05:17:15.438Z,99071.88
2023-04-01T05:19:43.786Z,99063.28
2023-04-01T05:22:12.412Z,99058.25
2023-04-01T05:24:40.836Z,99056.03
2023-04-01T05:27:09.184Z,99043.69
2023-04-01T05:29:37.650Z,99035.63
2023-04-01T05:32:06.151Z,99033.09
2023-04-01T05:34:34.770Z,99020.97
2023-04-01T05:37:03.322Z,99018.41
2023-04-01T05:39:31.962Z,99018.22
2023-04-01T05:42:00.347Z,99004.91
2023-04-01T05:44:29.272Z,98987.69
2023-04-01T05:46:57.666Z,98983.50
2023-04-01T05:49:27.710Z,98971.09
2023-04-01T05:51:57.600Z,98974.84
2023-04-01T05:54:26.061Z,98966.03
2023-04-01T05:56:54.526Z,98963.09
2023-04-01T05:59:23.035Z,98944.28
2023-04-01T06:01:51.520Z,98939.19
2023-04-01T06:04:20.834Z,98940.34
2023-04-01T06:06:49.409Z,98937.00
2023-04-01T06:09:32.061Z,98928.59
2023-04-01T06:12:33.317Z,98923.06
2023-04-01T06:15:19.117Z,98906.94
2023-04-01T06:18:00.328Z,98909.38
2023-04-01T06:20:37.569Z,98899.03
2023-04-01T06:23:21.557Z,98898.31
2023-04-01T06:25:57.825Z,98892.66
2023-04-01T06:28:43.742Z,98882.63
2023-04-01T06:31:21.203Z,98879.06
2023-04-01T06:33:55.387Z,98876.94
2023-04-01T06:36:26.927Z,98874.25
2023-04-01T06:39:11.057Z,98861.75
2023-04-01T06:41:51.728Z,98861.91
2023-04-01T06:44:41.153Z,98856.19
2023-04-01T06:47:45.478Z,98840.28
2023-04-01T06:50:43.252Z,98837.16
2023-04-01T06:53:35.553Z,98824.13
2023-04-01T06:56:10.276Z,98819.94
2023-04-01T06:58:59.291Z,98812.59
2023-04-01T07:01:38.933Z,98804.69
2023-04-01T07:04:48.924Z,98802.31
2023-04-01T07:07:22.974Z,98798.69
2023-04-01T07:09:56.224Z,98791.06
2023-04-01T07:12:38.494Z,98785.50
2023-04-01T07:15:21.073Z,98769.75
2023-04-01T07:17:57.841Z,98769.38
2023-04-01T07:20:33.824Z,98774.47
2023-04-01T07:23:07.041Z,98759.00
2023-04-01T07:25:44.128Z,98757.06
2023-04-01T07:28:20.401Z,98746.56
2023-04-01T07:31:10.487Z,98745.22
2023-04-01T07:34:04.979Z,98741.00
2023-04-01T07:36:55.052Z,98739.19
2023-04-01T07:39:40.093Z,98732.16
2023-04-01T07:42:43.309Z,98728.41
2023-04-01T07:45:35.397Z,98727.66
2023-04-01T07:48:16.307Z,98735.59
2023-04-01T07:51:05.050Z,98723.44
2023-04-01T07:53:39.052Z,98720.59
2023-04-01T07:56:28.957Z,98717.91
2023-04-01T07:58:57.553Z,98716.88
2023-04-01T08:01:48.669Z,98715.38
2023-04-01T08:04:55.710Z,98702.66
2023-04-01T08:07:35.197Z,98698.56
2023-04-01T08:10:10.437Z,98699.34
2023-04-01T08:12:56.167Z,98698.88
2023-04-01T08:15:51.335Z,98694.09
2023-04-01T08:18:29.034Z,98702.31
2023-04-01T08:21:16.655Z,98694.06
2023-04-01T08:23:50.650Z,98693.72
2023-04-01T08:26:47.545Z,98687.44
2023-04-01T08:29:23.819Z,98681.16
2023-04-01T08:32:10.935Z,98682.59
2023-04-01T08:34:42.733Z,98671.38
2023-04-01T08:37:19.742Z,98663.59
2023-04-01T08:39:56.818Z,98655.06
2023-04-01T08:43:13.034Z,98646.53
2023-04-01T08:46:14.274Z,98652.06
2023-04-01T08:48:45.245Z,98658.19
2023-04-01T08:51:34.564Z,98655.94
2023-04-01T08:54:23.909Z,98659.53
2023-04-01T08:57:15.500Z,98646.06
2023-04-01T09:00:05.344Z,98647.56
2023-04-01T09:02:56.492Z,98648.00
2023-04-01T09:06:04.536Z,98642.88
2023-04-01T09:08:59.493Z,98639.00
2023-04-01T09:11:49.415Z,98653.06
2023-04-01T09:14:51.229Z,98653.66
2023-04-01T09:17:47.214Z,98657.84
2023-04-01T09:21:06.262Z,98650.63
2023-04-01T09:24:13.111Z,98645.53
2023-04-01T09:26:47.408Z,98647.91
2023-04-01T09:29:42.415Z,98653.31
2023-04-01T09:32:41.973Z,98647.16
2023-04-01T09:35:47.528Z,98654.78
2023-04-01T09:38:46.621Z,98667.34
2023-04-01T09:41:28.729Z,98664.75
2023-04-01T09:44:19.597Z,98660.09
2023-04-01T09:47:25.229Z,98668.31
2023-04-01T09:50:17.685Z,98665.56
2023-04-01T09:53:10.373Z,98662.25
2023-04-01T09:56:05.841Z,98664.75
2023-04-01T09:59:01.277Z,98672.78
2023-04-01T10:01:47.302Z,98668.72
2023-04-01T10:05:04.396Z,98662.56
2023-04-01T10:08:17.772Z,98661.31
2023-04-01T10:10:54.806Z,98668.00
2023-04-01T10:13:35.053Z,98672.63
2023-04-01T10:16:18.236Z,98679.63
2023-04-01T10:18:58.409Z,98677.19
2023-04-01T10:21:52.454Z,98674.78
2023-04-01T10:25:11.422Z,98669.97
2023-04-01T10:28:16.906Z,98674.53
2023-04-01T10:30:57.424Z,98672.72
2023-04-01T10:33:36.934Z,98678.66
2023-04-01T10:37:00.205Z,98684.00
2023-04-01T10:39:36.808Z,98676.50
2023-04-01T10:42:35.621Z,98675.41
2023-04-01T10:45:25.458Z,98672.06
2023-04-01T10:48:02.894Z,98668.09
2023-04-01T10:51:07.809Z,98666.09
2023-04-01T10:53:45.547Z,98672.03
2023-04-01T10:56:20.206Z,98665.28
2023-04-01T10:59:24.926Z,98667.59
2023-04-01T11:02:14.676Z,98657.81
2023-04-01T11:04:43.167Z,98665.06
2023-04-01T11:07:11.721Z,98667.41
2023-04-01T11:10:05.405Z,98665.94
2023-04-01T11:12:51.839Z,98669.56
2023-04-01T11:15:57.438Z,98681.72
2023-04-01T11:18:43.187Z,98686.88
2023-04-01T11:22:02.158Z,98689.75
2023-04-01T11:24:51.714Z,98686.41
2023-04-01T11:27:40.131Z,98700.81
2023-04-01T11:30:33.603Z,98693.88
2023-04-01T11:33:07.464Z,98688.97
2023-04-01T11:36:11.913Z,98698.81
2023-04-01T11:38:53.048Z,98699.44
2023-04-01T11:41:58.628Z,98700.03
2023-04-01T11:44:32.658Z,98712.91
2023-04-01T11:47:38.183Z,98710.13
2023-04-01T11:50:18.843Z,98722.41
2023-04-01T11:53:05.481Z,98726.19
2023-04-01T11:55:42.932Z,98738.47
2023-04-01T11:58:44.678Z,98741.47
2023-04-01T12:01:26.389Z,98738.88
2023-04-01T12:04:32.186Z,98744.72
2023-04-01T12:07:09.319Z,98753.41
2023-04-01T12:09:59.144Z,98755.09
2023-04-01T12:12:59.969Z,98758.13
2023-04-01T12:15:35.842Z,98754.19
2023-04-01T12:18:29.448Z,98765.88
2023-04-01T12:21:09.233Z,98766.84
2023-04-01T12:23:56.417Z,98772.84
2023-04-01T12:26:24.762Z,98774.53
2023-04-01T12:29:51.410Z,98774.16
2023-04-01T12:33:00.684Z,98771.69
2023-04-01T12:35:35.438Z,98785.47
2023-04-01T12:38:13.082Z,98791.50
2023-04-01T12:40:47.745Z,98796.22
2023-04-01T12:43:47.151Z,98803.00
2023-04-01T12:46:48.817Z,98807.47
2023-04-01T12:49:54.661Z,98824.81
2023-04-01T12:52:37.904Z,98819.72
2023-04-01T12:55:30.191Z,98830.66
2023-04-01T12:57:58.564Z,98829.72
2023-04-01T13:00:41.575Z,98834.41
2023-04-01T13:03:30.674Z,98846.28
2023-04-01T13:06:14.116Z,98846.09
2023-04-01T13:09:31.422Z,98847.41
2023-04-01T13:12:31.377Z,98847.41
2023-04-01T13:15:25.344Z,98846.28
2023-04-01T13:17:56.505Z,98856.28
2023-04-01T13:20:49.085Z,98853.63
2023-04-01T13:23:53.140Z,98865.13
2023-04-01T13:26:35.818Z,98870.22
2023-04-01T13:29:20.388Z,98874.56
2023-04-01T13:32:16.591Z,98874.00
2023-04-01T13:35:00.896Z,98879.09
2023-04-01T13:38:04.956Z,98888.50
2023-04-01T13:40:59.644Z,98888.13
2023-04-01T13:43:39.537Z,98895.53
2023-04-01T13:46:37.674Z,98907.03
2023-04-01T13:49:30.447Z,98902.31
2023-04-01T13:52:36.387Z,98909.66
2023-04-01T13:55:15.016Z,98909.09
2023-04-01T13:58:03.466Z,98913.44
2023-04-01T14:01:09.631Z,98919.09
2023-04-01T14:03:58.813Z,98931.91
2023-04-01T14:06:57.153Z,98946.81
2023-04-01T14:09:43.657Z,98953.59
2023-04-01T14:12:35.133Z,98958.50
2023-04-01T14:15:36.870Z,98958.28
2023-04-01T14:18:27.254Z,98960.94
2023-04-01T14:21:20.872Z,98964.13
2023-04-01T14:24:36.006Z,98970.88
2023-04-01T14:27:33.344Z,98980.47
2023-04-01T14:30:07.468Z,98974.63
2023-04-01T14:32:59.562Z,98989.31
2023-04-01T14:36:09.263Z,98981.97
2023-04-01T14:39:10.705Z,98999.28
2023-04-01T14:42:40.345Z,99012.47
2023-04-01T14:45:44.195Z,99010.75
2023-04-01T14:48:33.524Z,99016.97
2023-04-01T14:51:31.984Z,99021.47
2023-04-01T14:54:06.420Z,99021.47
2023-04-01T14:56:47.087Z,99020.47
2023-04-01T14:59:24.318Z,99020.84
2023-04-01T15:01:58.499Z,99026.28
2023-04-01T15:05:03.391Z,99021.72
2023-04-01T15:07:55.283Z,99024.91
2023-04-01T15:10:48.391Z,99020.38
2023-04-01T15:13:32.629Z,99021.50
2023-04-01T15:16:18.970Z,99029.56
2023-04-01T15:18:53.204Z,99026.31
2023-04-01T15:21:42.854Z,99026.88
2023-04-01T15:24:58.656Z,99022.88
2023-04-01T15:27:46.750Z,99025.50
2023-04-01T15:30:44.502Z,99023.25
2023-04-01T15:33:23.652Z,99012.50
2023-04-01T15:36:16.445Z,99017.00
2023-04-01T15:38:52.113Z,99020.91
2023-04-01T15:41:28.591Z,99010.75
2023-04-01T15:43:57.053Z,99009.78
2023-04-01T15:46:57.166Z,99003.91
2023-04-01T15:49:45.732Z,99003.69
2023-04-01T15:52:44.822Z,99011.97
2023-04-01T15:55:45.166Z,99012.72
2023-04-01T15:58:37.710Z,99030.22
2023-04-01T16:01:20.984Z,99027.38
2023-04-01T16:04:40.738Z,99017.41
2023-04-01T16:07:30.217Z,99031.31
2023-04-01T16:10:35.180Z,99032.09
2023-04-01T16:13:18.437Z,99038.28
2023-04-01T16:16:03.440Z,99032.44
2023-04-01T16:18:45.617Z,99024.50
2023-04-01T16:21:16.990Z,99026.34
2023-04-01T16:23:57.855Z,99024.63
2023-04-01T16:26:28.910Z,99017.81
2023-04-01T16:29:09.045Z,99015.13
2023-04-01T16:31:40.268Z,99010.38
2023-04-01T16:34:19.942Z,99008.44
2023-04-01T16:36:54.033Z,99010.31
2023-04-01T16:40:03.840Z,99004.03
2023-04-01T16:42:53.132Z,99006.47
2023-04-01T16:45:36.745Z,99009.59
2023-04-01T16:48:36.695Z,99009.94
2023-04-01T16:51:14.470Z,99005.75
2023-04-01T16:54:08.716Z,98997.41
2023-04-01T16:57:12.400Z,98996.75
2023-04-01T17:00:18.187Z,98994.84
2023-04-01T17:03:10.186Z,98994.94
2023-04-01T17:05:45.704Z,98985.50
2023-04-01T17:08:32.056Z,98982.28
2023-04-01T17:11:24.774Z,98976.97
2023-04-01T17:14:19.502Z,98978.06
2023-04-01T17:17:14.855Z,98969.19
2023-04-01T17:19:56.200Z,98973.13
2023-04-01T17:22:30.652Z,98977.56
2023-04-01T17:25:33.126Z,98972.59
2023-04-01T17:28:07.376Z,98954.72
2023-04-01T17:31:10.148Z,98959.94
2023-04-01T17:34:06.584Z,98960.81
2023-04-01T17:36:59.601Z,98955.47
2023-04-01T17:39:43.025Z,98959.38
2023-04-01T17:42:27.021Z,98953.31
2023-04-01T17:45:25.696Z,98945.94
2023-04-01T17:48:17.732Z,98940.84
2023-04-01T17:51:11.315Z,98944.22
2023-04-01T17:54:21.286Z,98947.59
2023-04-01T17:57:05.030Z,98943.78
2023-04-01T17:59:46.384Z,98943.59
2023-04-01T18:02:47.135Z,98937.19
2023-04-01T18:05:27.473Z,98929.28
2023-04-01T18:08:20.043Z,98928.00
2023-04-01T18:11:21.418Z,98932.88
2023-04-01T18:14:16.986Z,98930.25
2023-04-01T18:17:09.304Z,98936.88
2023-04-01T18:20:12.488Z,98930.13
2023-04-01T18:23:04.650Z,98930.34
2023-04-01T18:25:49.999Z,98930.56
2023-04-01T18:28:52.431Z,98944.09
2023-04-01T18:31:26.027Z,98939.22
2023-04-01T18:34:10.181Z,98937.16
2023-04-01T18:36:43.060Z,98935.84
2023-04-01T18:39:17.882Z,98937.91
2023-04-01T18:41:58.048Z,98935.53
2023-04-01T18:44:54.112Z,98935.00
2023-04-01T18:47:25.638Z,98926.03
2023-04-01T18:50:02.114Z,98928.06
2023-04-01T18:52:45.334Z,98933.94
2023-04-01T18:55:16.934Z,98926.78
2023-04-01T18:57:48.863Z,98932.94
2023-04-01T19:00:22.844Z,98929.13
2023-04-01T19:03:14.957Z,98928.16
2023-04-01T19:05:48.427Z,98921.56
2023-04-01T19:08:22.799Z,98926.22
2023-04-01T19:11:18.467Z,98927.31
2023-04-01T19:14:33.153Z,98924.63
2023-04-01T19:17:57.769Z,98915.22
2023-04-01T19:20:34.969Z,98909.91
2023-04-01T19:23:15.039Z,98908.94
2023-04-01T19:25:57.395Z,98905.88
2023-04-01T19:28:41.474Z,98897.22
2023-04-01T19:31:38.008Z,98905.47
2023-04-01T19:34:15.145Z,98901.47
2023-04-01T19:37:35.984Z,98887.72
2023-04-01T19:40:13.068Z,98889.03
2023-04-01T19:43:02.515Z,98885.44
2023-04-01T19:45:43.577Z,98885.25
2023-04-01T19:48:33.860Z,98885.44
2023-04-01T19:51:21.374Z,98880.38
2023-04-01T19:54:15.322Z,98881.13
2023-04-01T19:56:52.214Z,98885.78
2023-04-01T19:59:35.529Z,98888.38
2023-04-01T20:02:17.699Z,98891.75
2023-04-01T20:05:27.879Z,98897.91
2023-04-01T20:08:08.941Z,98894.34
2023-04-01T20:10:58.687Z,98887.97
2023-04-01T20:13:30.037Z,98890.00
2023-04-01T20:16:08.977Z,98892.63
2023-04-01T20:18:54.604Z,98895.44
2023-04-01T20:21:45.588Z,98899.53
2023-04-01T20:24:17.066Z,98894.44
2023-04-01T20:26:51.691Z,98893.47
2023-04-01T20:29:42.822Z,98888.34
2023-04-01T20:32:40.387Z,98896.34
2023-04-01T20:35:28.492Z,98892.56
2023-04-01T20:38:24.270Z,98900.81
2023-04-01T20:40:59.041Z,98909.03
2023-04-01T20:44:05.608Z,98891.94
2023-04-01T20:47:06.934Z,98889.13
2023-04-01T20:50:08.609Z,98892.69
2023-04-01T20:53:03.460Z,98895.72
2023-04-01T20:56:01.089Z,98895.19
2023-04-01T20:58:58.739Z,98896.16
2023-04-01T21:01:46.797Z,98897.66
2023-04-01T21:04:29.270Z,98899.19
2023-04-01T21:07:08.909Z,98900.69
2023-04-01T21:09:44.382Z,98897.88
2023-04-01T21:12:31.544Z,98904.25
2023-04-01T21:15:13.821Z,98904.25
2023-04-01T21:17:53.775Z,98901.44
2023-04-01T21:20:40.258Z,98902.97
2023-04-01T21:23:38.940Z,98905.03
2023-04-01T21:26:15.460Z,98897.88
2023-04-01T21:29:13.675Z,98894.31
2023-04-01T21:32:00.044Z,98912.72
2023-04-01T21:34:31.471Z,98920.59
2023-04-01T21:37:11.691Z,98924.19
2023-04-01T21:39:59.823Z,98922.91
2023-04-01T21:42:36.488Z,98924.19
2023-04-01T21:45:41.910Z,98924.94
2023-04-01T21:48:28.300Z,98924.72
2023-04-01T21:51:39.257Z,98933.16
2023-04-01T21:54:45.199Z,98933.72
2023-04-01T21:57:16.350Z,98931.66
2023-04-01T22:00:19.598Z,98947.22
2023-04-01T22:02:53.392Z,98938.25
2023-04-01T22:05:59.750Z,98943.13
2023-04-01T22:08:31.053Z,98950.25
2023-04-01T22:11:18.920Z,98951.06
2023-04-01T22:14:43.844Z,98954.38
2023-04-01T22:17:26.672Z,98948.75
2023-04-01T22:20:22.120Z,98964.34
2023-04-01T22:23:17.525Z,98967.16
2023-04-01T22:26:00.791Z,98963.06
2023-04-01T22:28:40.357Z,98975.84
2023-04-01T22:31:13.219Z,98982.78
2023-04-01T22:33:56.431Z,98982.00
2023-04-01T22:37:00.632Z,98986.34
2023-04-01T22:39:45.546Z,98989.66
2023-04-01T22:42:34.973Z,98991.22
2023-04-01T22:45:15.799Z,98987.41
2023-04-01T22:48:05.825Z,98989.44
2023-04-01T22:50:57.673Z,98994.66
2023-04-01T22:53:50.701Z,99006.44
2023-04-01T22:56:29.186Z,99007.53
2023-04-01T22:59:25.314Z,99002.44
2023-04-01T23:02:16.489Z,99009.38
2023-04-01T23:04:49.583Z,99004.28
2023-04-01T23:07:56.203Z,99016.06
2023-04-01T23:10:49.697Z,99023.00
2023-04-01T23:13:30.156Z,99024.28
2023-04-01T23:15:59.902Z,99017.91
2023-04-01T23:18:47.226Z,99015.63
2023-04-01T23:21:29.167Z,99022.56
2023-04-01T23:24:30.352Z,99028.69
2023-04-01T23:27:05.664Z,99030.00
2023-04-01T23:29:40.330Z,99036.91
2023-04-01T23:32:19.795Z,99038.22
2023-04-01T23:35:02.336Z,99045.34
2023-04-01T23:37:30.896Z,99050.44
2023-04-01T23:40:02.651Z,99051.97
2023-04-01T23:42:43.063Z,99057.06
2023-04-01T23:45:24.422Z,99066.50
2023-04-01T23:47:54.212Z,99070.06
2023-04-01T23:50:28.473Z,99073.09
2023-04-01T23:53:11.932Z,99073.31
2023-04-01T23:55:44.083Z,99069.44
2023-04-01T23:58:29.916Z,99073.22
